createdAt,value
2022-08-28T00:02:04.647Z,95.81
2022-08-28T00:04:32.152Z,95.60
2022-08-28T00:06:59.732Z,94.05
2022-08-28T00:09:27.190Z,94.89
2022-08-28T00:11:55.331Z,95.34
2022-08-28T00:14:24.425Z,94.96
2022-08-28T00:16:52.567Z,94.56
2022-08-28T00:19:20.616Z,94.74
2022-08-28T00:21:48.208Z,94.82
2022-08-28T00:24:15.719Z,94.91
2022-08-28T00:27:02.217Z,94.98
2022-08-28T00:29:30.649Z,94.71
2022-08-28T00:31:58.480Z,95.34
2022-08-28T00:34:33.483Z,95.83
2022-08-28T00:37:01.916Z,96.19
2022-08-28T00:39:29.366Z,96.50
2022-08-28T00:41:58.006Z,95.50
2022-08-28T00:44:28.414Z,96.08
2022-08-28T00:46:58.010Z,96.37
2022-08-28T00:49:32.955Z,98.98
2022-08-28T00:52:16.259Z,97.16
2022-08-28T00:54:58.899Z,96.95
2022-08-28T00:57:37.946Z,98.06
2022-08-28T01:00:16.756Z,99.83
2022-08-28T01:02:44.357Z,94.39
2022-08-28T01:05:13.869Z,95.28
2022-08-28T01:07:42.241Z,96.00
2022-08-28T01:10:14.483Z,99.24
2022-08-28T01:12:42.776Z,97.69
2022-08-28T01:15:14.077Z,98.60
2022-08-28T01:17:46.759Z,99.24
2022-08-28T01:20:18.366Z,97.83
2022-08-28T01:22:59.459Z,99.10
2022-08-28T01:25:30.937Z,99.29
2022-08-28T01:27:58.798Z,96.70
2022-08-28T01:30:26.718Z,95.73
2022-08-28T01:32:56.129Z,94.69
2022-08-28T01:35:32.022Z,94.65
2022-08-28T01:38:00.300Z,92.17
2022-08-28T01:40:36.757Z,96.60
2022-08-28T01:43:19.515Z,96.41
2022-08-28T01:45:53.193Z,94.09
2022-08-28T01:48:23.307Z,92.66
2022-08-28T01:50:51.050Z,92.03
2022-08-28T01:53:24.870Z,94.13
2022-08-28T01:55:54.993Z,92.17
2022-08-28T01:58:23.512Z,90.10
2022-08-28T02:00:53.931Z,90.10
2022-08-28T02:03:23.867Z,90.00
2022-08-28T02:05:52.504Z,89.39
2022-08-28T02:08:20.864Z,88.82
2022-08-28T02:10:49.448Z,87.76
2022-08-28T02:13:17.111Z,87.19
2022-08-28T02:15:46.174Z,86.93
2022-08-28T02:18:14.751Z,86.38
2022-08-28T02:20:43.216Z,85.76
2022-08-28T02:23:11.260Z,84.75
2022-08-28T02:25:39.704Z,84.00
2022-08-28T02:28:07.383Z,83.72
2022-08-28T02:30:36.010Z,83.46
2022-08-28T02:33:04.247Z,81.50
2022-08-28T02:35:32.026Z,77.25
2022-08-28T02:38:00.463Z,74.04
2022-08-28T02:40:28.450Z,69.31
2022-08-28T02:42:56.046Z,66.13
2022-08-28T02:45:23.611Z,63.45
2022-08-28T02:47:53.415Z,60.20
2022-08-28T02:50:22.125Z,58.15
2022-08-28T02:52:49.679Z,55.15
2022-08-28T02:55:19.169Z,52.86
2022-08-28T02:57:48.764Z,51.51
2022-08-28T03:00:21.568Z,49.45
2022-08-28T03:02:50.348Z,49.29
2022-08-28T03:05:21.323Z,47.42
2022-08-28T03:07:50.666Z,46.40
2022-08-28T03:10:18.604Z,46.05
2022-08-28T03:12:46.449Z,45.23
2022-08-28T03:15:14.402Z,44.60
2022-08-28T03:17:41.989Z,43.81
2022-08-28T03:20:10.892Z,42.95
2022-08-28T03:22:57.353Z,41.71
2022-08-28T03:25:25.918Z,41.15
2022-08-28T03:27:53.944Z,41.05
2022-08-28T03:30:22.274Z,39.80
2022-08-28T03:32:50.187Z,39.07
2022-08-28T03:35:17.803Z,38.61
2022-08-28T03:37:45.190Z,37.79
2022-08-28T03:40:14.046Z,36.93
2022-08-28T03:42:41.531Z,36.69
2022-08-28T03:45:11.068Z,35.41
2022-08-28T03:47:40.670Z,34.81
2022-08-28T03:50:11.733Z,34.42
2022-08-28T03:52:41.422Z,33.64
2022-08-28T03:55:11.033Z,33.15
2022-08-28T03:57:39.420Z,32.31
2022-08-28T04:00:10.374Z,31.70
2022-08-28T04:02:42.411Z,31.23
2022-08-28T04:05:11.345Z,30.47
2022-08-28T04:07:40.391Z,30.00
2022-08-28T04:10:08.531Z,29.87
2022-08-28T04:12:37.217Z,29.11
2022-08-28T04:15:06.998Z,28.72
2022-08-28T04:17:35.334Z,28.60
2022-08-28T04:20:02.968Z,28.17
2022-08-28T04:22:30.928Z,27.56
2022-08-28T04:24:58.416Z,27.05
2022-08-28T04:27:25.796Z,27.10
2022-08-28T04:29:53.360Z,26.51
2022-08-28T04:32:22.163Z,25.93
2022-08-28T04:34:50.369Z,25.90
2022-08-28T04:37:18.710Z,25.36
2022-08-28T04:39:46.379Z,25.11
2022-08-28T04:42:14.720Z,24.56
2022-08-28T04:44:42.599Z,24.76
2022-08-28T04:47:10.463Z,24.14
2022-08-28T04:49:38.026Z,24.57
2022-08-28T04:52:05.668Z,24.47
2022-08-28T04:54:34.809Z,23.66
2022-08-28T04:57:03.129Z,23.73
2022-08-28T04:59:34.603Z,23.22
2022-08-28T05:02:02.658Z,22.98
2022-08-28T05:04:30.219Z,22.82
2022-08-28T05:06:57.727Z,22.75
2022-08-28T05:09:25.364Z,22.32
2022-08-28T05:11:53.693Z,22.04
2022-08-28T05:14:22.092Z,21.89
2022-08-28T05:16:53.260Z,21.82
2022-08-28T05:19:21.603Z,22.10
2022-08-28T05:21:49.289Z,22.09
2022-08-28T05:24:17.115Z,22.38
2022-08-28T05:26:48.172Z,22.94
2022-08-28T05:29:17.085Z,23.09
2022-08-28T05:31:44.648Z,22.78
2022-08-28T05:34:14.288Z,22.77
2022-08-28T05:36:42.357Z,22.45
2022-08-28T05:39:11.953Z,22.18
2022-08-28T05:41:42.546Z,21.40
2022-08-28T05:44:13.897Z,20.56
2022-08-28T05:46:43.952Z,19.94
2022-08-28T05:49:12.658Z,19.86
2022-08-28T05:51:42.239Z,19.41
2022-08-28T05:54:10.686Z,18.98
2022-08-28T05:56:40.731Z,18.74
2022-08-28T05:59:09.818Z,18.56
2022-08-28T06:01:41.705Z,17.91
2022-08-28T06:04:12.733Z,17.98
2022-08-28T06:06:41.594Z,17.09
2022-08-28T06:09:29.756Z,17.89
2022-08-28T06:12:01.908Z,16.99
2022-08-28T06:14:30.724Z,17.29
2022-08-28T06:16:59.204Z,16.65
2022-08-28T06:19:29.386Z,16.65
2022-08-28T06:21:59.984Z,16.29
2022-08-28T06:24:29.196Z,15.82
2022-08-28T06:26:58.185Z,15.64
2022-08-28T06:29:28.060Z,15.32
2022-08-28T06:31:58.589Z,14.96
2022-08-28T06:34:27.054Z,14.88
2022-08-28T06:36:54.903Z,14.81
2022-08-28T06:39:23.141Z,14.69
2022-08-28T06:41:50.891Z,14.56
2022-08-28T06:44:20.748Z,14.13
2022-08-28T06:46:51.122Z,14.53
2022-08-28T06:49:18.743Z,14.59
2022-08-28T06:51:46.470Z,14.43
2022-08-28T06:54:19.789Z,13.95
2022-08-28T06:56:50.792Z,14.00
2022-08-28T06:59:18.382Z,13.74
2022-08-28T07:01:46.000Z,13.04
2022-08-28T07:04:16.567Z,12.76
2022-08-28T07:06:54.814Z,12.23
2022-08-28T07:09:23.953Z,12.27
2022-08-28T07:11:51.641Z,12.74
2022-08-28T07:14:19.248Z,12.26
2022-08-28T07:16:46.796Z,12.35
2022-08-28T07:19:16.698Z,12.54
2022-08-28T07:21:45.750Z,12.93
2022-08-28T07:24:14.980Z,12.50
2022-08-28T07:26:43.959Z,12.72
2022-08-28T07:29:12.631Z,12.92
2022-08-28T07:31:44.232Z,13.01
2022-08-28T07:34:13.896Z,13.00
2022-08-28T07:36:42.471Z,13.82
2022-08-28T07:39:12.425Z,13.88
2022-08-28T07:41:43.005Z,13.16
2022-08-28T07:44:31.540Z,14.27
2022-08-28T07:47:04.486Z,14.38
2022-08-28T07:49:34.510Z,14.43
2022-08-28T07:52:02.729Z,14.70
2022-08-28T07:54:30.247Z,14.05
2022-08-28T07:56:57.779Z,13.60
2022-08-28T07:59:25.298Z,13.85
2022-08-28T08:01:53.856Z,14.45
2022-08-28T08:04:23.715Z,14.10
2022-08-28T08:06:57.543Z,13.69
2022-08-28T08:09:26.338Z,13.90
2022-08-28T08:11:55.276Z,13.77
2022-08-28T08:14:23.284Z,13.85
2022-08-28T08:16:51.951Z,14.47
2022-08-28T08:19:20.590Z,14.28
2022-08-28T08:21:53.085Z,14.89
2022-08-28T08:24:26.703Z,14.66
2022-08-28T08:26:59.835Z,14.62
2022-08-28T08:29:31.900Z,14.63
2022-08-28T08:32:06.104Z,14.57
2022-08-28T08:34:37.598Z,14.80
2022-08-28T08:37:06.022Z,14.76
2022-08-28T08:39:35.259Z,15.19
2022-08-28T08:42:07.285Z,15.33
2022-08-28T08:44:39.307Z,15.51
2022-08-28T08:47:17.170Z,15.99
2022-08-28T08:49:57.480Z,15.74
2022-08-28T08:52:49.241Z,16.56
2022-08-28T08:55:24.704Z,16.50
2022-08-28T08:58:17.783Z,17.11
2022-08-28T09:00:58.734Z,16.66
2022-08-28T09:03:48.266Z,17.23
2022-08-28T09:06:43.998Z,17.16
2022-08-28T09:09:32.597Z,16.58
2022-08-28T09:12:04.098Z,16.97
2022-08-28T09:14:53.134Z,18.21
2022-08-28T09:17:24.587Z,18.21
2022-08-28T09:19:52.046Z,18.56
2022-08-28T09:22:19.590Z,18.16
2022-08-28T09:24:47.872Z,18.38
2022-08-28T09:27:28.626Z,19.10
2022-08-28T09:30:07.472Z,18.58
2022-08-28T09:32:44.890Z,17.95
2022-08-28T09:35:25.806Z,18.40
2022-08-28T09:37:53.410Z,18.38
2022-08-28T09:40:23.732Z,18.30
2022-08-28T09:43:28.616Z,18.61
2022-08-28T09:46:22.484Z,18.48
2022-08-28T09:48:53.955Z,19.20
2022-08-28T09:51:21.413Z,20.08
2022-08-28T09:53:52.071Z,20.12
2022-08-28T09:56:32.679Z,20.48
2022-08-28T09:59:02.963Z,19.97
2022-08-28T10:01:51.636Z,19.89
2022-08-28T10:04:24.925Z,19.60
2022-08-28T10:07:13.381Z,19.75
2022-08-28T10:09:52.702Z,21.70
2022-08-28T10:12:50.620Z,20.43
2022-08-28T10:15:26.595Z,20.35
2022-08-28T10:18:31.782Z,20.31
2022-08-28T10:21:14.447Z,20.56
2022-08-28T10:24:07.615Z,21.58
2022-08-28T10:26:43.133Z,21.38
2022-08-28T10:29:27.558Z,21.21
2022-08-28T10:32:14.700Z,20.51
2022-08-28T10:35:03.599Z,20.66
2022-08-28T10:37:52.983Z,21.42
2022-08-28T10:40:35.391Z,21.38
2022-08-28T10:43:11.435Z,21.27
2022-08-28T10:45:40.010Z,21.59
2022-08-28T10:48:24.405Z,21.42
2022-08-28T10:50:57.234Z,22.02
2022-08-28T10:53:52.621Z,21.51
2022-08-28T10:56:30.901Z,21.97
2022-08-28T10:58:59.816Z,22.46
2022-08-28T11:01:38.812Z,21.48
2022-08-28T11:04:14.689Z,22.35
2022-08-28T11:06:50.717Z,22.50
2022-08-28T11:09:31.482Z,21.57
2022-08-28T11:12:09.932Z,22.82
2022-08-28T11:14:48.024Z,22.53
2022-08-28T11:17:22.369Z,22.28
2022-08-28T11:19:57.177Z,22.30
2022-08-28T11:22:30.124Z,23.41
2022-08-28T11:25:13.342Z,23.04
2022-08-28T11:28:01.637Z,22.02
2022-08-28T11:30:33.794Z,22.26
2022-08-28T11:33:04.735Z,22.38
2022-08-28T11:35:46.566Z,22.74
2022-08-28T11:38:42.616Z,22.33
2022-08-28T11:41:15.042Z,23.32
2022-08-28T11:43:51.731Z,22.08
2022-08-28T11:46:31.865Z,22.61
2022-08-28T11:49:01.790Z,23.26
2022-08-28T11:52:07.749Z,22.56
2022-08-28T11:55:22.641Z,22.54
2022-08-28T12:01:01.807Z,23.18
2022-08-28T12:03:38.119Z,22.50
2022-08-28T12:06:07.211Z,22.11
2022-08-28T12:08:51.653Z,21.94
2022-08-28T12:11:40.849Z,22.68
2022-08-28T12:14:09.402Z,23.09
2022-08-28T12:17:01.479Z,22.85
2022-08-28T12:19:36.874Z,21.76
2022-08-28T12:22:13.721Z,23.25
2022-08-28T12:24:50.814Z,23.43
2022-08-28T12:27:18.945Z,22.77
2022-08-28T12:29:50.921Z,23.23
2022-08-28T12:32:21.372Z,22.80
2022-08-28T12:34:58.003Z,23.06
2022-08-28T12:37:52.551Z,22.09
2022-08-28T12:40:53.691Z,21.98
2022-08-28T12:43:46.788Z,22.58
2022-08-28T12:46:38.507Z,22.40
2022-08-28T12:49:27.603Z,23.48
2022-08-28T12:52:18.255Z,23.24
2022-08-28T12:54:47.051Z,22.62
2022-08-28T12:57:18.111Z,22.98
2022-08-28T12:59:51.294Z,23.24
2022-08-28T13:02:18.653Z,22.69
2022-08-28T13:05:20.555Z,23.84
2022-08-28T13:07:51.675Z,24.40
2022-08-28T13:10:30.086Z,24.10
2022-08-28T13:13:05.470Z,23.61
2022-08-28T13:16:01.727Z,23.86
2022-08-28T13:18:51.684Z,24.10
2022-08-28T13:21:34.060Z,24.30
2022-08-28T13:24:22.345Z,24.32
2022-08-28T13:27:00.980Z,24.76
2022-08-28T13:29:28.870Z,25.06
2022-08-28T13:32:05.522Z,25.08
2022-08-28T13:34:36.292Z,25.44
2022-08-28T13:37:14.645Z,25.57
2022-08-28T13:39:47.971Z,25.74
2022-08-28T13:42:18.182Z,26.16
2022-08-28T13:44:53.478Z,26.15
2022-08-28T13:47:21.057Z,25.62
2022-08-28T13:49:48.642Z,26.27
2022-08-28T13:52:16.385Z,26.24
2022-08-28T13:54:45.514Z,26.81
2022-08-28T13:57:14.104Z,26.66
2022-08-28T13:59:42.176Z,27.09
2022-08-28T14:02:32.738Z,27.31
2022-08-28T14:05:01.142Z,27.35
2022-08-28T14:07:30.674Z,26.82
2022-08-28T14:09:58.686Z,27.82
2022-08-28T14:12:31.427Z,27.75
2022-08-28T14:15:01.962Z,27.46
2022-08-28T14:17:31.977Z,27.99
2022-08-28T14:20:00.584Z,27.92
2022-08-28T14:22:28.801Z,27.95
2022-08-28T14:24:56.271Z,28.46
2022-08-28T14:27:23.758Z,28.86
2022-08-28T14:29:51.289Z,28.79
2022-08-28T14:32:18.947Z,28.25
2022-08-28T14:34:47.886Z,28.70
2022-08-28T14:37:15.895Z,29.02
2022-08-28T14:39:43.809Z,28.71
2022-08-28T14:42:13.023Z,29.07
2022-08-28T14:44:40.966Z,28.92
2022-08-28T14:47:09.001Z,28.90
2022-08-28T14:49:36.596Z,29.13
2022-08-28T14:52:04.883Z,29.57
2022-08-28T14:54:32.441Z,29.89
2022-08-28T14:57:00.024Z,29.46
2022-08-28T14:59:29.492Z,30.03
2022-08-28T15:02:00.337Z,30.20
2022-08-28T15:04:34.841Z,30.04
2022-08-28T15:07:06.848Z,30.28
2022-08-28T15:09:39.957Z,30.33
2022-08-28T15:12:07.654Z,29.29
2022-08-28T15:14:36.299Z,30.01
2022-08-28T15:17:04.352Z,30.27
2022-08-28T15:19:31.981Z,30.68
2022-08-28T15:22:00.092Z,30.75
2022-08-28T15:24:31.766Z,31.08
2022-08-28T15:26:59.966Z,30.93
2022-08-28T15:29:30.147Z,31.21
2022-08-28T15:31:58.698Z,31.18
2022-08-28T15:34:28.700Z,31.35
2022-08-28T15:36:57.817Z,31.54
2022-08-28T15:39:46.368Z,31.87
2022-08-28T15:42:14.612Z,31.74
2022-08-28T15:44:42.616Z,31.96
2022-08-28T15:47:10.654Z,31.94
2022-08-28T15:49:48.616Z,32.21
2022-08-28T15:52:19.023Z,32.66
2022-08-28T15:54:47.430Z,32.73
2022-08-28T15:57:17.022Z,32.38
2022-08-28T15:59:49.532Z,32.83
2022-08-28T16:02:24.558Z,33.53
2022-08-28T16:04:53.647Z,33.18
2022-08-28T16:07:22.776Z,33.12
2022-08-28T16:09:50.926Z,33.22
2022-08-28T16:12:18.666Z,33.54
2022-08-28T16:14:46.262Z,33.21
2022-08-28T16:17:13.923Z,33.73
2022-08-28T16:19:42.462Z,33.65
2022-08-28T16:22:12.758Z,33.55
2022-08-28T16:24:40.389Z,33.64
2022-08-28T16:27:13.124Z,33.90
2022-08-28T16:29:43.475Z,34.23
2022-08-28T16:32:11.704Z,33.97
2022-08-28T16:34:40.238Z,34.62
2022-08-28T16:37:08.224Z,34.70
2022-08-28T16:39:37.060Z,34.96
2022-08-28T16:42:04.907Z,34.65
2022-08-28T16:44:32.462Z,34.88
2022-08-28T16:47:00.695Z,35.46
2022-08-28T16:49:28.311Z,35.57
2022-08-28T16:51:55.860Z,35.75
2022-08-28T16:54:23.910Z,35.58
2022-08-28T16:56:51.548Z,35.81
2022-08-28T16:59:23.260Z,36.03
2022-08-28T17:01:53.074Z,36.77
2022-08-28T17:04:22.390Z,36.37
2022-08-28T17:06:50.378Z,36.09
2022-08-28T17:09:21.150Z,36.49
2022-08-28T17:11:52.059Z,36.55
2022-08-28T17:14:21.379Z,37.00
2022-08-28T17:16:49.124Z,36.51
2022-08-28T17:19:16.705Z,36.23
2022-08-28T17:22:02.541Z,36.58
2022-08-28T17:24:31.356Z,36.88
2022-08-28T17:27:03.249Z,36.84
2022-08-28T17:29:36.630Z,37.46
2022-08-28T17:32:05.544Z,37.60
2022-08-28T17:34:33.023Z,37.36
2022-08-28T17:37:00.610Z,37.77
2022-08-28T17:39:28.371Z,38.61
2022-08-28T17:41:55.969Z,38.32
2022-08-28T17:44:23.834Z,38.17
2022-08-28T17:46:53.966Z,38.69
2022-08-28T17:49:22.729Z,38.58
2022-08-28T17:51:51.384Z,39.19
2022-08-28T17:54:21.979Z,39.59
2022-08-28T17:56:52.421Z,39.66
2022-08-28T17:59:20.744Z,40.01
2022-08-28T18:01:48.742Z,40.12
2022-08-28T18:04:23.277Z,40.26
2022-08-28T18:06:54.843Z,40.08
2022-08-28T18:09:23.806Z,40.09
2022-08-28T18:11:52.585Z,41.21
2022-08-28T18:14:20.345Z,40.35
2022-08-28T18:16:47.937Z,40.80
2022-08-28T18:19:16.613Z,41.37
2022-08-28T18:21:44.345Z,42.11
2022-08-28T18:24:13.282Z,41.48
2022-08-28T18:26:42.056Z,41.41
2022-08-28T18:29:09.621Z,41.88
2022-08-28T18:31:37.313Z,41.87
2022-08-28T18:34:05.611Z,41.94
2022-08-28T18:36:33.183Z,42.39
2022-08-28T18:39:00.749Z,42.44
2022-08-28T18:41:35.736Z,42.32
2022-08-28T18:44:13.717Z,42.50
2022-08-28T18:46:41.818Z,42.55
2022-08-28T18:49:09.699Z,42.67
2022-08-28T18:51:37.419Z,42.80
2022-08-28T18:54:04.988Z,42.89
2022-08-28T18:56:34.138Z,42.91
2022-08-28T18:59:04.459Z,42.80
2022-08-28T19:01:32.066Z,43.25
2022-08-28T19:03:59.755Z,43.23
2022-08-28T19:06:27.381Z,44.04
2022-08-28T19:08:54.842Z,43.92
2022-08-28T19:11:22.282Z,44.29
2022-08-28T19:13:49.798Z,43.73
2022-08-28T19:16:20.823Z,44.87
2022-08-28T19:18:48.886Z,44.10
2022-08-28T19:21:20.670Z,44.17
2022-08-28T19:23:55.357Z,44.22
2022-08-28T19:26:27.499Z,44.72
2022-08-28T19:28:55.453Z,44.53
2022-08-28T19:31:23.752Z,44.71
2022-08-28T19:33:51.689Z,44.97
2022-08-28T19:36:19.806Z,45.04
2022-08-28T19:38:47.867Z,45.01
2022-08-28T19:41:15.472Z,44.98
2022-08-28T19:43:44.693Z,45.07
2022-08-28T19:46:19.377Z,46.57
2022-08-28T19:48:53.016Z,46.67
2022-08-28T19:51:24.041Z,45.67
2022-08-28T19:53:57.821Z,45.78
2022-08-28T19:56:31.750Z,46.48
2022-08-28T19:59:01.789Z,45.27
2022-08-28T20:01:33.067Z,45.67
2022-08-28T20:04:00.769Z,45.13
2022-08-28T20:06:31.797Z,46.13
2022-08-28T20:09:00.577Z,45.34
2022-08-28T20:11:30.054Z,45.20
2022-08-28T20:14:04.564Z,45.64
2022-08-28T20:16:36.028Z,46.65
2022-08-28T20:19:04.755Z,45.53
2022-08-28T20:21:37.646Z,45.56
2022-08-28T20:24:09.420Z,44.06
2022-08-28T20:26:37.342Z,45.34
2022-08-28T20:29:07.944Z,46.06
2022-08-28T20:31:37.403Z,45.29
2022-08-28T20:34:05.205Z,45.89
2022-08-28T20:36:32.839Z,45.99
2022-08-28T20:39:01.023Z,45.90
2022-08-28T20:41:28.752Z,46.23
2022-08-28T20:43:56.212Z,46.21
2022-08-28T20:46:24.677Z,47.11
2022-08-28T20:48:52.267Z,46.75
2022-08-28T20:51:42.543Z,46.60
2022-08-28T20:54:10.777Z,46.79
2022-08-28T20:56:38.443Z,46.99
2022-08-28T20:59:06.399Z,46.90
2022-08-28T21:01:34.187Z,47.30
2022-08-28T21:04:02.307Z,47.28
2022-08-28T21:06:30.568Z,47.46
2022-08-28T21:08:58.587Z,47.61
2022-08-28T21:11:27.409Z,48.20
2022-08-28T21:13:55.652Z,47.86
2022-08-28T21:16:23.406Z,48.32
2022-08-28T21:19:14.684Z,47.82
2022-08-28T21:21:38.946Z,47.87
2022-08-28T21:24:09.496Z,48.60
2022-08-28T21:26:37.906Z,48.39
2022-08-28T21:29:07.014Z,48.95
2022-08-28T21:31:35.014Z,48.99
2022-08-28T21:34:02.616Z,48.67
2022-08-28T21:36:30.198Z,48.46
2022-08-28T21:38:58.634Z,48.78
2022-08-28T21:41:26.109Z,48.87
2022-08-28T21:43:53.770Z,48.88
2022-08-28T21:46:21.348Z,49.30
2022-08-28T21:48:50.607Z,49.89
2022-08-28T21:51:19.653Z,49.41
2022-08-28T21:53:47.647Z,49.52
2022-08-28T21:56:20.609Z,50.78
2022-08-28T21:58:48.199Z,49.47
2022-08-28T22:01:17.097Z,50.01
2022-08-28T22:03:45.521Z,50.19
2022-08-28T22:06:15.870Z,50.28
2022-08-28T22:08:43.851Z,50.19
2022-08-28T22:11:12.158Z,50.24
2022-08-28T22:13:39.883Z,50.26
2022-08-28T22:16:08.323Z,50.28
2022-08-28T22:18:36.071Z,50.22
2022-08-28T22:21:22.964Z,50.42
2022-08-28T22:23:51.702Z,50.38
2022-08-28T22:26:22.538Z,51.25
2022-08-28T22:28:50.115Z,50.63
2022-08-28T22:31:17.661Z,50.62
2022-08-28T22:33:45.769Z,50.86
2022-08-28T22:36:13.754Z,51.04
2022-08-28T22:38:41.826Z,51.31
2022-08-28T22:41:17.665Z,51.18
2022-08-28T22:43:48.304Z,51.87
2022-08-28T22:46:19.065Z,51.51
2022-08-28T22:48:46.671Z,51.49
2022-08-28T22:51:17.168Z,52.39
2022-08-28T22:53:45.512Z,51.50
2022-08-28T22:56:14.176Z,51.78
2022-08-28T22:58:41.975Z,51.70
2022-08-28T23:01:13.828Z,52.95
2022-08-28T23:03:42.399Z,51.92
2022-08-28T23:06:10.185Z,51.86
2022-08-28T23:08:37.697Z,51.74
2022-08-28T23:11:05.739Z,51.63
2022-08-28T23:13:33.604Z,51.93
2022-08-28T23:16:02.244Z,52.14
2022-08-28T23:18:41.496Z,51.81
2022-08-28T23:21:14.085Z,51.82
2022-08-28T23:23:42.752Z,52.05
2022-08-28T23:26:15.221Z,53.71
2022-08-28T23:28:44.490Z,52.97
2022-08-28T23:31:12.014Z,51.84
2022-08-28T23:33:39.532Z,52.36
2022-08-28T23:36:07.435Z,51.98
2022-08-28T23:38:43.036Z,53.65
2022-08-28T23:41:11.669Z,52.48
2022-08-28T23:43:41.142Z,52.36
2022-08-28T23:46:10.014Z,52.53
2022-08-28T23:48:41.357Z,52.21
2022-08-28T23:51:10.513Z,52.83
2022-08-28T23:53:39.797Z,52.61
2022-08-28T23:56:07.544Z,52.46
2022-08-28T23:58:35.623Z,52.23
